La Fayette, GA (30728)

2:06 AM EST on February 08, 2016 (GMT -0500)
RAWS | | Change Station
CLOSE
Current Station
Personal Weather Station
Location: La Fayette, GA
Elevation: 1151 ft
Nearby Weather Stations

Elev 1151 ft 34.70 °N, 85.17 °W | Updated 1 day ago

Clear
Clear
36 °F
Feels Like 30 °F
N
7
Wind Variable Wind from SW
Gusts 13 mph

Today
High -- | Low -- °F
--% Chance of Precip.
Yesterday
High -- | Low -- °F
Precip. -- in
Pressure 29.90 in
Visibility 10.0 miles
Clouds Clear
Windchill 30 °F
Dew Point 27 °F
Humidity 69%
Rainfall in
Snow Depth Not available.
7:34 AM 6:17 PM
Waning Crescent, 0% visible
METAR KCHA 080653Z AUTO VRB05KT 10SM CLR 04/M03 A2990 RMK AO2 SLP125 T00391033
Pressure 29.90 in
Visibility 10.0 miles
Clouds Clear
Windchill 30 °F
Dew Point 27 °F
Humidity 69%
Rainfall in
Snow Depth Not available.
7:34 AM 6:17 PM
Waning Crescent, 0% visible
METAR KCHA 080653Z AUTO VRB05KT 10SM CLR 04/M03 A2990 RMK AO2 SLP125 T00391033

10-Day Weather Forecast

Almanac

Astronomy

Feb. 08, 2016 Rise Set
Actual Time
Civil Twilight
Nautical Twilight
Astronomical Twilight
Moon
Length of Visible Light
Length of Day
Tomorrow will be .
, % of the Moon is Illuminated

Today's Extremes

State Highs State Lows

Community

WunderPhotos

Upload Photos

1,891,394 photos uploaded!

WunderBlog® & News

Nearby

Air Quality

  Air Quality AQ Index Pollutant
Not available.

Snow Depth

Station Depth Elevation

Earthquake Activity

City Distance Mag. Time & Date
Minimum magnitude displayed is 2.5.

Coastal Water Temperatures

Place Temperature

Stations

Nearby Weather Stations

Station Location Temp. Windchill Dew Point Humidity Wind Precip. Elev Updated Type
                   

Watches & Warnings

There are currently no watches in effect.